Scarborough, Maine
Current Conditions -  °F | °C
As of 4:51 PM on Monday 24 Nov 2014 (Local Time) from KPWM Reporting Station
Haze Haze  
Wind Chill: 59°   Ceiling: 700
Heat Index: 59°   Visibility: 3mi
Dew Point: 58°   Wind: 14mph
Humidity: 96%   Direction: 180°S
Pressure: 29.53"   Gusts: 22mph
Location:  43.6°N, 70.33°W
Report Text: KPWM 242151Z 18012G19KT 3SM BR OVC007 15/14 A2953 RMK AO2 SLP000 T01500144
Loading
Personal Weather Stations






























Interactive Weather Map New forecast layout! Learn more

10-Day Weather Forecast

Advertisements
Track Severe Weather on mobile